NCAR-RAP Real-Time Weather Data

Output produced by METARs form (14 October 2019  23:16 UTC)
found at http://weather.rap.ucar.edu/surface/
 
KDEN 142253Z 35006KT 10SM FEW120 SCT220 23/M10 A2990 RMK AO2 SLP068 T02331100
KDEN 142153Z 02010KT 10SM FEW100 FEW200 24/M10 A2989 RMK AO2 SLP068 T02391100
KDEN 142053Z 00000KT 10SM FEW100 FEW200 23/M11 A2989 RMK AO2 SLP071 T02281106 56015
KDEN 141953Z 22008KT 10SM FEW100 FEW220 22/M10 A2991 RMK AO2 SLP071 T02221100
KDEN 141853Z 29007KT 260V330 10SM FEW100 FEW220 22/M10 A2993 RMK AO2 SLP078 T02221100
KDEN 141753Z 28007G17KT 10SM FEW100 FEW200 22/M11 A2995 RMK AO2 SLP085 T02171106 10217 20039 58007
KDEN 141653Z 27007KT 10SM FEW110 FEW220 21/M11 A2996 RMK AO2 SLP094 T02061111
KDEN 141553Z 17004KT 10SM FEW110 FEW220 17/M09 A2997 RMK AO2 SLP100 T01721094
KDEN 141453Z 20007KT 10SM FEW100 FEW200 13/M09 A2997 RMK AO2 SLP110 T01281094 53005
KDEN 141353Z 23009KT 10SM FEW100 FEW200 08/M11 A2996 RMK AO2 SLP112 T00831111
KDEN 141253Z 23006KT 10SM FEW200 09/M13 A2996 RMK AO2 SLP102 T00891128
KDEN 141153Z 22012KT 10SM FEW200 06/M12 A2995 RMK AO2 SLP097 T00611117 10089 20039 53004
KDEN 141053Z 21009KT 10SM FEW200 07/M12 A2995 RMK AO2 SLP091 T00671117
KDEN 140953Z 23005KT 10SM FEW220 04/M09 A2994 RMK AO2 SLP092 T00441094
KDEN 140853Z 24008KT 10SM FEW220 05/M09 A2994 RMK AO2 SLP088 T00501094 55003
KDEN 140753Z 23010KT 10SM FEW220 07/M11 A2994 RMK AO2 SLP088 T00721106
KDEN 140653Z 22011KT 10SM FEW220 08/M11 A2995 RMK AO2 SLP088 T00831106 402280017
KDEN 140553Z 21010KT 10SM FEW220 08/M09 A2995 RMK AO2 SLP094 T00781094 10194 20056 58003
KDEN 140453Z 17010KT 10SM FEW220 07/M09 A2996 RMK AO2 SLP102 T00671089
KDEN 140353Z 18011KT 10SM CLR 09/M09 A2996 RMK AO2 SLP104 T00941089
KDEN 140253Z 18011KT 10SM CLR 09/M09 A2996 RMK AO2 SLP111 T00891094 50005
KDEN 140153Z 16010KT 10SM FEW250 11/M09 A2997 RMK AO2 SLP120 T01061094
KDEN 140053Z 11007KT 10SM FEW250 16/M13 A2995 RMK AO2 SLP108 T01561128
KDEN 132353Z 10003KT 10SM FEW250 19/M14 A2995 RMK AO2 SLP101 T01941139 10228 20183 55001
KDEN 132253Z 00000KT 10SM FEW250 21/M16 A2995 RMK AO2 SLP097 T02111161
KDEN 132153Z 00000KT 10SM CLR 22/M17 A2994 RMK AO2 SLP094 T02221167
KDEN 132053Z 00000KT 10SM CLR 22/M17 A2995 RMK AO2 SLP096 T02221167 58018
KDEN 131953Z 00000KT 10SM CLR 21/M16 A2997 RMK AO2 SLP105 T02061161
KDEN 131853Z 24004KT 10SM CLR 20/M16 A3000 RMK AO2 SLP116 T02001156
KDEN 131753Z 28005KT 10SM CLR 19/M16 A3001 RMK AO2 SLP120 T01891156 10194 20022 58004
KDEN 131653Z 21008KT 10SM CLR 17/M12 A3003 RMK AO2 SLP125 T01721122
KDEN 131553Z 22012KT 10SM CLR 14/M12 A3003 RMK AO2 SLP133 T01391117
KDEN 131453Z 23011KT 10SM CLR 11/M12 A3003 RMK AO2 SLP136 T01061122 53010
KDEN 131353Z 23008KT 10SM CLR 06/M11 A3001 RMK AO2 SLP137 T00561111
KDEN 131253Z 23011KT 10SM CLR 04/M11 A3000 RMK AO2 SLP128 T00391111
KDEN 131153Z 25007KT 10SM CLR 02/M09 A2999 RMK AO2 SLP123 T00221094 10056 20017 53003
KDEN 131053Z 22004KT 10SM CLR 03/M09 A2998 RMK AO2 SLP113 T00281094
KDEN 130953Z 24009KT 10SM CLR 03/M09 A2997 RMK AO2 SLP110 T00281089
KDEN 130853Z 25009KT 10SM CLR 03/M09 A2998 RMK AO2 SLP113 T00331089 51005
KDEN 130753Z 24010KT 10SM CLR 03/M08 A2998 RMK AO2 SLP114 T00331083
KDEN 130653Z 26008KT 10SM CLR 04/M08 A2997 RMK AO2 SLP111 T00441083 401941028
KDEN 130553Z 22008KT 10SM CLR 06/M09 A2996 RMK AO2 SLP113 T00561094 10167 20028 55001
KDEN 130453Z 22007KT 10SM CLR 07/M08 A2996 RMK AO2 SLP115 T00721083
KDEN 130353Z 21009KT 10SM CLR 07/M05 A2996 RMK AO2 SLP127 T00671050
KDEN 130253Z 14007KT 10SM CLR 08/M07 A2997 RMK AO2 SLP131 T00831067 51008
KDEN 130153Z 14006KT 10SM CLR 10/M07 A2996 RMK AO2 SLP135 T01001072
KDEN 130053Z 06004KT 10SM FEW200 13/M09 A2995 RMK AO2 SLP119 T01331089
KDEN 122353Z 05003KT 10SM FEW200 17/M07 A2994 RMK AO2 SLP108 T01671072 10194 20133 55000